createdAt,value
2017-01-21T00:01:51.868Z,1033.48
2017-01-21T00:02:41.151Z,1033.49
2017-01-21T00:03:29.434Z,1033.52
2017-01-21T00:04:18.730Z,1033.51
2017-01-21T00:05:07.392Z,1033.46
2017-01-21T00:05:56.327Z,1033.46
2017-01-21T00:06:45.196Z,1033.41
2017-01-21T00:07:33.949Z,1033.43
2017-01-21T00:08:22.851Z,1033.41
2017-01-21T00:09:11.434Z,1033.45
2017-01-21T00:10:00.388Z,1033.44
2017-01-21T00:10:48.986Z,1033.47
2017-01-21T00:11:37.508Z,1033.48
2017-01-21T00:12:26.353Z,1033.5
2017-01-21T00:13:15.535Z,1033.45
2017-01-21T00:14:04.854Z,1033.46
2017-01-21T00:14:53.884Z,1033.5
2017-01-21T00:15:42.391Z,1033.54
2017-01-21T00:16:30.977Z,1033.48
2017-01-21T00:17:19.456Z,1033.47
2017-01-21T00:18:08.434Z,1033.45
2017-01-21T00:18:57.376Z,1033.5
2017-01-21T00:19:46.325Z,1033.49
2017-01-21T00:20:35.115Z,1033.49
2017-01-21T00:21:23.431Z,1033.5
2017-01-21T00:22:12.423Z,1033.47
2017-01-21T00:23:01.953Z,1033.5
2017-01-21T00:23:50.276Z,1033.45
2017-01-21T00:24:39.373Z,1033.42
2017-01-21T00:25:27.940Z,1033.46
2017-01-21T00:26:16.479Z,1033.45
2017-01-21T00:27:05.432Z,1033.51
2017-01-21T00:27:54.359Z,1033.46
2017-01-21T00:28:42.878Z,1033.48
2017-01-21T00:29:27.360Z,1033.48
2017-01-21T00:30:07.839Z,1033.51
2017-01-21T00:30:49.274Z,1033.54
2017-01-21T00:31:29.793Z,1033.46
2017-01-21T00:32:16.045Z,1033.44
2017-01-21T00:32:56.591Z,1033.42
2017-01-21T00:33:38.889Z,1033.4
2017-01-21T00:34:20.951Z,1033.39
2017-01-21T00:35:01.508Z,1033.38
2017-01-21T00:35:43.649Z,1033.36
2017-01-21T00:36:24.645Z,1033.38
2017-01-21T00:37:05.773Z,1033.37
2017-01-21T00:37:46.249Z,1033.36
2017-01-21T00:38:28.457Z,1033.41
2017-01-21T00:39:09.600Z,1033.42
2017-01-21T00:39:51.553Z,1033.4
2017-01-21T00:40:32.011Z,1033.39
2017-01-21T00:41:13.367Z,1033.4
2017-01-21T00:41:53.884Z,1033.42
2017-01-21T00:42:34.364Z,1033.38
2017-01-21T00:43:14.858Z,1033.41
2017-01-21T00:43:55.339Z,1033.37
2017-01-21T00:44:37.473Z,1033.35
2017-01-21T00:45:19.250Z,1033.35
2017-01-21T00:45:59.696Z,1033.37
2017-01-21T00:46:40.875Z,1033.35
2017-01-21T00:47:21.407Z,1033.33
2017-01-21T00:48:02.378Z,1033.31
2017-01-21T00:48:43.386Z,1033.31
2017-01-21T00:49:23.908Z,1033.32
2017-01-21T00:50:04.378Z,1033.28
2017-01-21T00:50:45.632Z,1033.28
2017-01-21T00:51:26.161Z,1033.33
2017-01-21T00:52:07.269Z,1033.35
2017-01-21T00:52:47.781Z,1033.31
2017-01-21T00:53:28.239Z,1033.29
2017-01-21T00:54:09.377Z,1033.31
2017-01-21T00:54:51.381Z,1033.33
2017-01-21T00:55:33.500Z,1033.29
2017-01-21T00:56:16.890Z,1033.33
2017-01-21T00:56:58.880Z,1033.31
2017-01-21T00:57:39.388Z,1033.25
2017-01-21T00:58:20.590Z,1033.27
2017-01-21T00:59:02.095Z,1033.26
2017-01-21T00:59:42.699Z,1033.21
2017-01-21T01:00:23.139Z,1033.25
2017-01-21T01:01:04.346Z,1033.22
2017-01-21T01:01:46.484Z,1033.21
2017-01-21T01:02:28.384Z,1033.23
2017-01-21T01:03:09.486Z,1033.17
2017-01-21T01:03:51.573Z,1033.22
2017-01-21T01:04:32.191Z,1033.19
2017-01-21T01:05:13.185Z,1033.13
2017-01-21T01:05:53.770Z,1033.19
2017-01-21T01:06:34.219Z,1033.18
2017-01-21T01:07:15.446Z,1033.16
2017-01-21T01:07:55.908Z,1033.2
2017-01-21T01:08:36.458Z,1033.16
2017-01-21T01:09:17.977Z,1033.14
2017-01-21T01:09:58.523Z,1033.2
2017-01-21T01:10:39.835Z,1033.17
2017-01-21T01:11:20.446Z,1033.19
2017-01-21T01:12:01.704Z,1033.17
2017-01-21T01:12:43.141Z,1033.19
2017-01-21T01:13:24.448Z,1033.15
2017-01-21T01:14:05.853Z,1033.18
2017-01-21T01:14:46.398Z,1033.14
2017-01-21T01:15:28.447Z,1033.17
2017-01-21T01:16:09.723Z,1033.11
2017-01-21T01:16:50.262Z,1033.11
2017-01-21T01:17:30.718Z,1033.09
2017-01-21T01:18:11.193Z,1033.12
2017-01-21T01:18:52.378Z,1033.16
2017-01-21T01:19:32.896Z,1033.16
2017-01-21T01:20:13.375Z,1033.16
2017-01-21T01:20:53.923Z,1033.2
2017-01-21T01:21:35.143Z,1033.24
2017-01-21T01:22:16.489Z,1033.19
2017-01-21T01:22:57.892Z,1033.2
2017-01-21T01:23:38.357Z,1033.21
2017-01-21T01:24:20.665Z,1033.18
2017-01-21T01:25:02.581Z,1033.2
2017-01-21T01:25:43.078Z,1033.19
2017-01-21T01:26:23.606Z,1033.18
2017-01-21T01:27:04.092Z,1033.15
2017-01-21T01:27:45.531Z,1033.17
2017-01-21T01:28:26.030Z,1033.19
2017-01-21T01:29:07.994Z,1033.15
2017-01-21T01:29:49.276Z,1033.18
2017-01-21T01:30:29.743Z,1033.2
2017-01-21T01:31:10.236Z,1033.16
2017-01-21T01:31:52.747Z,1033.17
2017-01-21T01:32:33.230Z,1033.14
2017-01-21T01:33:13.755Z,1033.12
2017-01-21T01:33:54.986Z,1033.14
2017-01-21T01:34:36.753Z,1033.16
2017-01-21T01:35:17.993Z,1033.14
2017-01-21T01:35:58.591Z,1033.12
2017-01-21T01:36:39.093Z,1033.14
2017-01-21T01:37:19.578Z,1033.15
2017-01-21T01:38:00.790Z,1033.16
2017-01-21T01:38:41.215Z,1033.16
2017-01-21T01:39:22.222Z,1033.16
2017-01-21T01:40:06.401Z,1033.19
2017-01-21T01:40:47.551Z,1033.2
2017-01-21T01:41:28.763Z,1033.2
2017-01-21T01:42:09.232Z,1033.19
2017-01-21T01:42:49.708Z,1033.22
2017-01-21T01:43:31.061Z,1033.14
2017-01-21T01:44:12.366Z,1033.21
2017-01-21T01:44:53.594Z,1033.12
2017-01-21T01:45:35.384Z,1033.18
2017-01-21T01:46:16.638Z,1033.19
2017-01-21T01:46:59.018Z,1033.18
2017-01-21T01:47:40.385Z,1033.19
2017-01-21T01:48:20.875Z,1033.16
2017-01-21T01:49:02.972Z,1033.17
2017-01-21T01:49:45.779Z,1033.16
2017-01-21T01:50:26.264Z,1033.13
2017-01-21T01:51:09.272Z,1033.15
2017-01-21T01:51:49.724Z,1033.11
2017-01-21T01:52:32.857Z,1033.12
2017-01-21T01:53:14.788Z,1033.11
2017-01-21T01:53:55.232Z,1033.14
2017-01-21T01:54:35.699Z,1033.17
2017-01-21T01:55:17.756Z,1033.1
2017-01-21T01:56:01.850Z,1033.16
2017-01-21T01:56:43.164Z,1033.13
2017-01-21T01:57:23.660Z,1033.12
2017-01-21T01:58:04.158Z,1033.1
2017-01-21T01:58:44.630Z,1033.12
2017-01-21T01:59:25.168Z,1033.11
2017-01-21T02:00:06.627Z,1033.1
2017-01-21T02:00:48.060Z,1033.11
2017-01-21T02:01:28.576Z,1033.1
2017-01-21T02:02:10.746Z,1033.12
2017-01-21T02:02:51.290Z,1033.13
2017-01-21T02:03:32.451Z,1033.12
2017-01-21T02:04:12.851Z,1033.13
2017-01-21T02:04:55.259Z,1033.08
2017-01-21T02:05:36.670Z,1033.08
2017-01-21T02:06:17.132Z,1033.12
2017-01-21T02:06:57.601Z,1033.08
2017-01-21T02:07:38.205Z,1033.09
2017-01-21T02:08:19.501Z,1033.08
2017-01-21T02:08:59.957Z,1033.01
2017-01-21T02:09:41.264Z,1032.97
2017-01-21T02:10:21.784Z,1032.94
2017-01-21T02:11:03.216Z,1032.98
2017-01-21T02:11:44.400Z,1032.99
2017-01-21T02:12:24.839Z,1032.95
2017-01-21T02:13:05.883Z,1032.97
2017-01-21T02:13:46.340Z,1032.95
2017-01-21T02:14:26.946Z,1032.94
2017-01-21T02:15:07.342Z,1032.94
2017-01-21T02:15:48.019Z,1032.97
2017-01-21T02:16:29.259Z,1032.94
2017-01-21T02:17:09.725Z,1032.98
2017-01-21T02:17:50.240Z,1032.96
2017-01-21T02:18:31.538Z,1032.95
2017-01-21T02:19:13.247Z,1032.93
2017-01-21T02:19:54.252Z,1032.94
2017-01-21T02:20:34.713Z,1032.93
2017-01-21T02:21:15.354Z,1032.99
2017-01-21T02:21:56.560Z,1032.99
2017-01-21T02:22:37.172Z,1032.96
2017-01-21T02:23:21.372Z,1032.98
2017-01-21T02:24:01.813Z,1032.97
2017-01-21T02:24:42.323Z,1032.98
2017-01-21T02:25:22.878Z,1032.96
2017-01-21T02:26:04.104Z,1032.98
2017-01-21T02:26:45.228Z,1033.02
2017-01-21T02:27:25.756Z,1033.08
2017-01-21T02:28:07.745Z,1033.06
2017-01-21T02:28:48.264Z,1033.07
2017-01-21T02:29:28.799Z,1033.07
2017-01-21T02:30:09.338Z,1033.06
2017-01-21T02:30:49.959Z,1033.05
2017-01-21T02:31:31.124Z,1033.03
2017-01-21T02:32:12.445Z,1032.97
2017-01-21T02:32:52.973Z,1033.01
2017-01-21T02:33:35.359Z,1033
2017-01-21T02:34:16.698Z,1033
2017-01-21T02:34:58.788Z,1033.01
2017-01-21T02:35:39.234Z,1033
2017-01-21T02:36:19.875Z,1032.99
2017-01-21T02:37:01.362Z,1033.02
2017-01-21T02:37:42.469Z,1032.99
2017-01-21T02:38:23.615Z,1032.96
2017-01-21T02:39:04.992Z,1033.02
2017-01-21T02:39:45.438Z,1033
2017-01-21T02:40:26.744Z,1032.97
2017-01-21T02:41:07.207Z,1032.93
2017-01-21T02:41:52.585Z,1032.9
2017-01-21T02:42:33.881Z,1032.96
2017-01-21T02:43:14.347Z,1032.95
2017-01-21T02:43:54.864Z,1032.9
2017-01-21T02:44:35.856Z,1032.92
2017-01-21T02:45:19.858Z,1032.93
2017-01-21T02:46:00.383Z,1032.9
2017-01-21T02:46:40.852Z,1032.9
2017-01-21T02:47:21.298Z,1032.86
2017-01-21T02:48:01.836Z,1032.92
2017-01-21T02:48:42.290Z,1032.92
2017-01-21T02:49:26.411Z,1032.94
2017-01-21T02:50:06.880Z,1032.87
2017-01-21T02:50:47.368Z,1032.93
2017-01-21T02:51:27.816Z,1032.9
2017-01-21T02:52:08.283Z,1032.9
2017-01-21T02:52:50.601Z,1032.89
2017-01-21T02:53:31.062Z,1032.91
2017-01-21T02:54:11.593Z,1032.89
2017-01-21T02:54:51.980Z,1032.89
2017-01-21T02:55:33.530Z,1032.87
2017-01-21T02:56:13.967Z,1032.87
2017-01-21T02:56:55.971Z,1032.86
2017-01-21T02:57:37.174Z,1032.81
2017-01-21T02:58:19.377Z,1032.87
2017-01-21T02:58:59.852Z,1032.84
2017-01-21T02:59:40.385Z,1032.81
2017-01-21T03:00:20.818Z,1032.79
2017-01-21T03:01:01.258Z,1032.77
2017-01-21T03:01:41.769Z,1032.77
2017-01-21T03:02:23.751Z,1032.78
2017-01-21T03:03:04.212Z,1032.78
2017-01-21T03:03:44.747Z,1032.75
2017-01-21T03:04:25.278Z,1032.75
2017-01-21T03:05:09.230Z,1032.76
2017-01-21T03:05:50.583Z,1032.78
2017-01-21T03:06:31.042Z,1032.73
2017-01-21T03:07:14.797Z,1032.72
2017-01-21T03:07:56.775Z,1032.75
2017-01-21T03:08:37.969Z,1032.71
2017-01-21T03:09:18.552Z,1032.74
2017-01-21T03:09:59.752Z,1032.72
2017-01-21T03:49:04.877Z,1032.42
2017-01-21T03:49:53.036Z,1032.37
2017-01-21T03:50:42.126Z,1032.4
2017-01-21T03:51:30.505Z,1032.34
2017-01-21T03:52:19.794Z,1032.37
2017-01-21T03:53:08.426Z,1032.36
2017-01-21T03:53:56.827Z,1032.36
2017-01-21T03:54:46.116Z,1032.39
2017-01-21T03:55:34.719Z,1032.38
2017-01-21T03:56:23.160Z,1032.34
2017-01-21T03:57:11.392Z,1032.39
2017-01-21T03:57:59.897Z,1032.39
2017-01-21T03:58:48.540Z,1032.38
2017-01-21T03:59:37.380Z,1032.35
2017-01-21T04:00:25.979Z,1032.37
2017-01-21T04:01:14.502Z,1032.33
2017-01-21T04:02:03.723Z,1032.33
2017-01-21T04:02:52.543Z,1032.35
2017-01-21T04:03:40.893Z,1032.37
2017-01-21T04:04:29.940Z,1032.33
2017-01-21T04:05:19.206Z,1032.34
2017-01-21T04:06:07.377Z,1032.39
2017-01-21T04:06:56.286Z,1032.35
2017-01-21T04:07:44.439Z,1032.33
2017-01-21T04:08:33.758Z,1032.33
2017-01-21T04:09:22.980Z,1032.3
2017-01-21T04:10:12.260Z,1032.29
2017-01-21T04:11:00.473Z,1032.29
2017-01-21T04:11:50.770Z,1032.28
2017-01-21T04:12:38.934Z,1032.25
2017-01-21T04:13:27.893Z,1032.23
2017-01-21T04:14:16.815Z,1032.27
2017-01-21T04:15:05.382Z,1032.27
2017-01-21T04:15:54.300Z,1032.24
2017-01-21T04:16:42.937Z,1032.24
2017-01-21T04:17:31.903Z,1032.26
2017-01-21T04:18:21.241Z,1032.25
2017-01-21T04:19:11.387Z,1032.26
2017-01-21T04:19:59.394Z,1032.27
2017-01-21T04:20:48.357Z,1032.26
2017-01-21T04:21:36.814Z,1032.26
2017-01-21T04:22:25.362Z,1032.23
2017-01-21T04:23:14.211Z,1032.28
2017-01-21T04:24:03.201Z,1032.22
2017-01-21T04:24:51.509Z,1032.25
2017-01-21T04:25:40.468Z,1032.21
2017-01-21T04:26:29.224Z,1032.23
2017-01-21T04:27:18.138Z,1032.25
2017-01-21T04:28:06.928Z,1032.26
2017-01-21T04:28:50.649Z,1032.31
2017-01-21T04:29:31.171Z,1032.27
2017-01-21T04:30:12.656Z,1032.27
2017-01-21T04:32:33.706Z,1032.28
2017-01-21T04:35:15.678Z,1032.19
2017-01-21T04:36:04.026Z,1032.21
2017-01-21T04:36:53.209Z,1032.18
2017-01-21T04:37:41.482Z,1032.12
2017-01-21T04:38:30.051Z,1032.17
2017-01-21T04:39:18.975Z,1032.2
2017-01-21T04:40:07.735Z,1032.17
2017-01-21T04:40:56.430Z,1032.17
2017-01-21T04:41:45.508Z,1032.17
2017-01-21T04:42:34.558Z,1032.16
2017-01-21T04:43:22.935Z,1032.14
2017-01-21T04:44:10.526Z,1032.13
2017-01-21T04:44:58.324Z,1032.16
2017-01-21T04:45:47.162Z,1032.17
2017-01-21T04:46:35.567Z,1032.16
2017-01-21T04:47:25.296Z,1032.09
2017-01-21T04:48:13.772Z,1032.12
2017-01-21T04:49:02.300Z,1032.13
2017-01-21T04:49:50.974Z,1032.17
2017-01-21T04:50:40.094Z,1032.16
2017-01-21T04:51:29.700Z,1032.16
2017-01-21T04:52:18.150Z,1032.11
2017-01-21T04:53:06.702Z,1032.19
2017-01-21T04:53:55.843Z,1032.22
2017-01-21T04:54:44.768Z,1032.24
2017-01-21T04:55:33.832Z,1032.21
2017-01-21T04:56:22.965Z,1032.18
2017-01-21T04:57:12.974Z,1032.2
2017-01-21T04:58:01.554Z,1032.25
2017-01-21T04:58:50.631Z,1032.26
2017-01-21T04:59:39.169Z,1032.24
2017-01-21T05:00:28.161Z,1032.25
2017-01-21T05:01:16.864Z,1032.24
2017-01-21T05:02:05.847Z,1032.24
2017-01-21T05:02:54.012Z,1032.26
2017-01-21T05:03:43.205Z,1032.26
2017-01-21T05:04:31.868Z,1032.27
2017-01-21T05:05:20.686Z,1032.28
2017-01-21T05:06:09.063Z,1032.28
2017-01-21T05:06:58.234Z,1032.28
2017-01-21T05:07:46.892Z,1032.22
2017-01-21T05:08:35.756Z,1032.25
2017-01-21T05:09:24.270Z,1032.21
2017-01-21T05:10:12.934Z,1032.18
2017-01-21T05:11:01.976Z,1032.2
2017-01-21T05:11:50.543Z,1032.2
2017-01-21T05:12:39.044Z,1032.16
2017-01-21T05:13:27.881Z,1032.2
2017-01-21T05:14:16.881Z,1032.22
2017-01-21T05:14:59.784Z,1032.23
2017-01-21T05:15:40.314Z,1032.22
2017-01-21T05:16:23.200Z,1032.21
2017-01-21T05:17:06.324Z,1032.19
2017-01-21T05:17:49.358Z,1032.21
2017-01-21T05:18:30.571Z,1032.19
2017-01-21T05:19:11.101Z,1032.21
2017-01-21T05:19:53.462Z,1032.19
2017-01-21T05:20:34.637Z,1032.18
2017-01-21T05:21:16.686Z,1032.23
2017-01-21T05:21:58.101Z,1032.25
2017-01-21T05:22:38.651Z,1032.19
2017-01-21T05:23:22.671Z,1032.26
2017-01-21T05:24:05.107Z,1032.2
2017-01-21T05:24:46.515Z,1032.24
2017-01-21T05:25:31.695Z,1032.23
2017-01-21T05:26:17.651Z,1032.26
2017-01-21T05:26:59.716Z,1032.24
2017-01-21T05:27:40.937Z,1032.23
2017-01-21T05:28:22.217Z,1032.23
2017-01-21T05:29:05.408Z,1032.25
2017-01-21T05:29:45.863Z,1032.23
2017-01-21T05:30:27.726Z,1032.22
2017-01-21T05:31:08.983Z,1032.26
2017-01-21T05:31:52.740Z,1032.25
2017-01-21T05:32:33.166Z,1032.23
2017-01-21T05:33:13.649Z,1032.25
2017-01-21T05:33:54.213Z,1032.28
2017-01-21T05:34:35.408Z,1032.16
2017-01-21T05:35:19.522Z,1032.25
2017-01-21T05:36:00.905Z,1032.25
2017-01-21T05:36:42.023Z,1032.23
2017-01-21T05:37:24.338Z,1032.26
2017-01-21T05:38:07.421Z,1032.2
2017-01-21T05:38:47.825Z,1032.2
2017-01-21T05:39:29.727Z,1032.18
2017-01-21T05:40:11.084Z,1032.16
2017-01-21T05:40:52.202Z,1032.18
2017-01-21T05:41:35.182Z,1032.18
2017-01-21T05:42:15.679Z,1032.18
2017-01-21T05:42:56.165Z,1032.16
2017-01-21T05:43:37.393Z,1032.2
2017-01-21T05:44:18.847Z,1032.14
2017-01-21T05:44:59.328Z,1032.12
2017-01-21T05:45:43.323Z,1032.14
2017-01-21T05:46:23.853Z,1032.09
2017-01-21T05:47:07.698Z,1032.08
2017-01-21T05:47:48.888Z,1032.08
2017-01-21T05:48:29.289Z,1032.08
2017-01-21T05:49:09.800Z,1032.1
2017-01-21T05:49:50.302Z,1032.07
2017-01-21T05:50:31.576Z,1032
2017-01-21T05:51:13.890Z,1032.07
2017-01-21T05:51:54.462Z,1032.05
2017-01-21T05:52:34.861Z,1032.06
2017-01-21T05:53:16.000Z,1032.08
2017-01-21T05:53:56.624Z,1032.07
2017-01-21T05:54:37.126Z,1032.06
2017-01-21T05:55:20.267Z,1032.08
2017-01-21T05:56:02.510Z,1032.1
2017-01-21T05:56:43.625Z,1032.08
2017-01-21T05:57:24.092Z,1032.08
2017-01-21T05:58:04.649Z,1032.03
2017-01-21T05:58:45.998Z,1032.06
2017-01-21T05:59:26.461Z,1032.06
2017-01-21T06:00:08.798Z,1031.99
2017-01-21T06:00:49.438Z,1032.02
2017-01-21T06:01:31.735Z,1031.97
2017-01-21T06:02:13.870Z,1032.01
2017-01-21T06:02:56.998Z,1031.97
2017-01-21T06:03:39.435Z,1032.02
2017-01-21T06:04:19.925Z,1031.98
2017-01-21T06:05:02.127Z,1032
2017-01-21T06:05:44.205Z,1031.99
2017-01-21T06:06:27.280Z,1032
2017-01-21T06:07:08.321Z,1031.99
2017-01-21T06:07:49.549Z,1032
2017-01-21T06:08:30.050Z,1031.98
2017-01-21T06:09:11.359Z,1031.96
2017-01-21T06:09:54.160Z,1032.01
2017-01-21T06:10:34.691Z,1031.99
2017-01-21T06:11:15.775Z,1031.97
2017-01-21T06:11:56.323Z,1032.02
2017-01-21T06:12:37.608Z,1032.01
2017-01-21T06:13:21.668Z,1032.04
2017-01-21T06:14:03.658Z,1032.04
2017-01-21T06:14:44.172Z,1032.04
2017-01-21T06:15:24.642Z,1032.02
2017-01-21T06:16:05.197Z,1032.05
2017-01-21T06:16:46.300Z,1032
2017-01-21T06:17:28.622Z,1032.02
2017-01-21T06:18:10.963Z,1031.99
2017-01-21T06:18:52.689Z,1031.97
2017-01-21T06:19:33.322Z,1031.99
2017-01-21T06:20:13.847Z,1031.98
2017-01-21T06:20:54.400Z,1032.05
2017-01-21T06:21:34.895Z,1032
2017-01-21T06:22:16.098Z,1032.06
2017-01-21T06:22:57.127Z,1032.08
2017-01-21T06:23:37.713Z,1032.1
2017-01-21T06:24:19.677Z,1032.1
2017-01-21T06:25:00.160Z,1032.06
2017-01-21T06:25:41.315Z,1032.08
2017-01-21T06:26:22.678Z,1032.04
2017-01-21T06:27:03.668Z,1032.06
2017-01-21T06:27:45.692Z,1032.05
2017-01-21T06:28:26.908Z,1032.06
2017-01-21T06:29:07.654Z,1032.03
2017-01-21T06:29:49.073Z,1032.05
2017-01-21T06:30:32.414Z,1032.01
2017-01-21T06:31:13.595Z,1032.05
2017-01-21T06:31:54.703Z,1032.12
2017-01-21T06:32:36.873Z,1032.04
2017-01-21T06:33:17.412Z,1032.1
2017-01-21T06:33:57.853Z,1032.11
2017-01-21T06:34:38.320Z,1032.07
2017-01-21T06:35:18.848Z,1032.11
2017-01-21T06:35:59.352Z,1032.11
2017-01-21T06:36:39.775Z,1032.08
2017-01-21T06:37:20.272Z,1032.08
2017-01-21T06:38:00.817Z,1032.07
2017-01-21T06:38:43.108Z,1032.12
2017-01-21T06:39:23.624Z,1032.12
2017-01-21T06:40:04.816Z,1032.13
2017-01-21T06:40:45.254Z,1032.14
2017-01-21T06:41:25.725Z,1032.12
2017-01-21T06:42:06.222Z,1032.08
2017-01-21T06:42:46.780Z,1032.09
2017-01-21T06:43:28.129Z,1032.08
2017-01-21T06:44:17.261Z,1032.09
2017-01-21T06:45:00.398Z,1032.08
2017-01-21T06:45:41.228Z,1032.09
2017-01-21T06:46:21.872Z,1032.08
2017-01-21T06:47:05.523Z,1032.09
2017-01-21T06:47:48.241Z,1032.13
2017-01-21T06:48:30.942Z,1032.13
2017-01-21T06:49:13.119Z,1032.1
2017-01-21T06:49:55.216Z,1032.12
2017-01-21T06:50:37.201Z,1032.14
2017-01-21T06:51:19.730Z,1032.14
2017-01-21T06:52:05.564Z,1032.14
2017-01-21T06:52:46.224Z,1032.13
2017-01-21T06:53:28.400Z,1032.12
2017-01-21T06:54:09.456Z,1032.13
2017-01-21T06:54:51.367Z,1032.14
2017-01-21T06:55:33.856Z,1032.12
2017-01-21T06:56:16.199Z,1032.13
2017-01-21T06:56:57.382Z,1032.12
2017-01-21T06:57:39.287Z,1032.09
2017-01-21T06:58:21.974Z,1032.16
2017-01-21T06:59:03.695Z,1032.14
2017-01-21T06:59:45.093Z,1032.18
2017-01-21T07:00:25.797Z,1032.13
2017-01-21T07:01:06.947Z,1032.13
2017-01-21T07:01:48.403Z,1032.07
2017-01-21T07:02:31.217Z,1032.06
2017-01-21T07:03:12.873Z,1032.01
2017-01-21T07:03:54.000Z,1032.03
2017-01-21T07:04:34.184Z,1031.98
2017-01-21T07:05:15.484Z,1031.99
2017-01-21T07:05:58.058Z,1031.98
2017-01-21T07:06:38.962Z,1032.01
2017-01-21T07:07:19.501Z,1032.02
2017-01-21T07:08:00.053Z,1031.99
2017-01-21T07:08:41.800Z,1031.98
2017-01-21T07:09:23.008Z,1032.01
2017-01-21T07:10:04.392Z,1032.03
2017-01-21T07:10:45.493Z,1032.09
2017-01-21T07:11:26.027Z,1032.06
2017-01-21T07:12:06.476Z,1032.05
2017-01-21T07:12:49.464Z,1032.07
2017-01-21T07:13:30.057Z,1032.06
2017-01-21T07:14:11.502Z,1032.08
2017-01-21T07:14:51.985Z,1032.07
2017-01-21T07:15:33.418Z,1032.06
2017-01-21T07:16:13.872Z,1032.04
2017-01-21T07:16:54.442Z,1032.1
2017-01-21T07:17:34.927Z,1032.11
2017-01-21T07:18:15.412Z,1032.03
2017-01-21T07:18:56.448Z,1032.07
2017-01-21T07:19:36.940Z,1032.05
2017-01-21T07:20:19.220Z,1032.06
2017-01-21T07:20:59.722Z,1032.04
2017-01-21T07:21:40.153Z,1032.09
2017-01-21T07:22:22.471Z,1032.09
2017-01-21T07:23:03.036Z,1032.08
2017-01-21T07:23:43.494Z,1032.1
2017-01-21T07:24:23.977Z,1032.05
2017-01-21T07:25:04.541Z,1032.03
2017-01-21T07:25:45.039Z,1032.02
2017-01-21T07:26:26.517Z,1032.09
2017-01-21T07:27:07.015Z,1032.1
2017-01-21T07:27:48.698Z,1032.11
2017-01-21T07:28:30.716Z,1032.1
2017-01-21T07:29:12.890Z,1032.11
2017-01-21T07:29:54.919Z,1032.1
2017-01-21T07:30:37.214Z,1032.14
2017-01-21T07:31:20.341Z,1032.11
2017-01-21T07:32:01.485Z,1032.1
2017-01-21T07:32:42.699Z,1032.12
2017-01-21T07:33:23.190Z,1032.11
2017-01-21T07:34:05.177Z,1032.14
2017-01-21T07:34:46.465Z,1032.1
2017-01-21T07:35:27.000Z,1032.11
2017-01-21T07:36:07.508Z,1032.13
2017-01-21T07:36:47.998Z,1032.13
2017-01-21T07:37:29.390Z,1032.15
2017-01-21T07:38:09.822Z,1032.15
2017-01-21T07:38:50.294Z,1032.15
2017-01-21T07:39:30.772Z,1032.12
2017-01-21T07:40:11.319Z,1032.14
2017-01-21T07:40:53.161Z,1032.12
2017-01-21T07:41:33.654Z,1032.13
2017-01-21T07:42:15.736Z,1032.12
2017-01-21T07:42:56.233Z,1032.12
2017-01-21T07:43:36.747Z,1032.11
2017-01-21T07:44:17.183Z,1032.12
2017-01-21T07:44:58.408Z,1032.14
2017-01-21T07:45:38.925Z,1032.16
2017-01-21T07:46:20.185Z,1032.14
2017-01-21T07:47:00.739Z,1032.13
2017-01-21T07:47:41.201Z,1032.14
2017-01-21T07:48:21.797Z,1032.13
2017-01-21T07:49:02.363Z,1032.18
2017-01-21T07:49:42.843Z,1032.2
2017-01-21T07:50:24.995Z,1032.25
2017-01-21T07:51:06.011Z,1032.18
2017-01-21T07:51:47.406Z,1032.24
2017-01-21T07:52:29.179Z,1032.25
2017-01-21T07:53:09.694Z,1032.28
2017-01-21T07:53:50.933Z,1032.3
2017-01-21T07:54:32.255Z,1032.35
2017-01-21T07:55:12.704Z,1032.3
2017-01-21T07:55:53.705Z,1032.26
2017-01-21T07:56:34.156Z,1032.31
2017-01-21T07:57:14.672Z,1032.32
2017-01-21T07:57:55.170Z,1032.28
2017-01-21T07:58:36.570Z,1032.3
2017-01-21T07:59:17.118Z,1032.27
2017-01-21T07:59:57.591Z,1032.31
2017-01-21T08:00:38.926Z,1032.3
2017-01-21T08:01:19.516Z,1032.3
2017-01-21T08:02:01.608Z,1032.34
2017-01-21T08:02:42.104Z,1032.33
2017-01-21T08:03:24.498Z,1032.29
2017-01-21T08:04:07.773Z,1032.31
2017-01-21T08:04:48.169Z,1032.31
2017-01-21T08:05:29.553Z,1032.32
2017-01-21T08:06:10.668Z,1032.34
2017-01-21T08:06:51.214Z,1032.37
2017-01-21T08:07:32.290Z,1032.4
2017-01-21T08:08:12.800Z,1032.39
2017-01-21T08:08:53.447Z,1032.36
2017-01-21T08:09:34.617Z,1032.41
2017-01-21T08:10:15.171Z,1032.42
2017-01-21T08:10:55.635Z,1032.45
2017-01-21T08:11:38.672Z,1032.5
2017-01-21T08:12:20.971Z,1032.44
2017-01-21T08:13:03.325Z,1032.44
2017-01-21T08:13:44.707Z,1032.45
2017-01-21T08:14:25.121Z,1032.4
2017-01-21T08:15:05.731Z,1032.43
2017-01-21T08:15:49.699Z,1032.41
2017-01-21T08:16:31.064Z,1032.43
2017-01-21T08:17:11.637Z,1032.37
2017-01-21T08:17:54.427Z,1032.37
2017-01-21T08:18:36.317Z,1032.35
2017-01-21T08:19:16.890Z,1032.4
2017-01-21T08:19:57.393Z,1032.37
2017-01-21T08:20:37.944Z,1032.4
2017-01-21T08:21:18.430Z,1032.39
2017-01-21T08:21:58.889Z,1032.39
2017-01-21T08:22:40.008Z,1032.45
2017-01-21T08:23:20.538Z,1032.45
2017-01-21T08:24:01.032Z,1032.44
2017-01-21T08:24:42.217Z,1032.44
2017-01-21T08:25:22.694Z,1032.44
2017-01-21T08:26:03.903Z,1032.44
2017-01-21T08:26:44.992Z,1032.43
2017-01-21T08:27:25.601Z,1032.48
2017-01-21T08:28:07.469Z,1032.48
2017-01-21T08:28:47.952Z,1032.47
2017-01-21T08:29:28.464Z,1032.45
2017-01-21T08:30:09.058Z,1032.51
2017-01-21T08:30:49.499Z,1032.56
2017-01-21T08:31:30.004Z,1032.59
2017-01-21T08:32:10.528Z,1032.57
2017-01-21T08:32:51.220Z,1032.56
2017-01-21T08:33:31.640Z,1032.56
2017-01-21T08:34:12.819Z,1032.58
2017-01-21T08:34:54.096Z,1032.5
2017-01-21T08:35:34.591Z,1032.54
2017-01-21T08:36:15.940Z,1032.51
2017-01-21T08:36:58.910Z,1032.57
2017-01-21T08:37:40.077Z,1032.54
2017-01-21T08:38:20.578Z,1032.57
2017-01-21T08:39:01.696Z,1032.62
2017-01-21T08:39:42.187Z,1032.68
2017-01-21T08:40:23.358Z,1032.71
2017-01-21T08:41:04.696Z,1032.67
2017-01-21T08:41:46.128Z,1032.66
2017-01-21T08:42:26.697Z,1032.68
2017-01-21T08:43:07.189Z,1032.62
2017-01-21T08:43:47.707Z,1032.66
2017-01-21T08:44:29.796Z,1032.63
2017-01-21T08:49:56.477Z,1032.6
2017-01-21T08:50:45.646Z,1032.56
2017-01-21T08:51:37.074Z,1032.59
2017-01-21T08:52:26.188Z,1032.58
2017-01-21T08:53:14.332Z,1032.58
2017-01-21T08:54:02.967Z,1032.55
2017-01-21T08:54:51.730Z,1032.54
2017-01-21T08:55:40.125Z,1032.57
2017-01-21T08:56:29.135Z,1032.54
2017-01-21T08:57:17.726Z,1032.61
2017-01-21T08:58:06.261Z,1032.57
2017-01-21T08:58:55.029Z,1032.57
2017-01-21T08:59:43.601Z,1032.62
2017-01-21T09:00:32.662Z,1032.6
2017-01-21T09:01:22.127Z,1032.58
2017-01-21T09:02:10.101Z,1032.62
2017-01-21T09:02:59.062Z,1032.6
2017-01-21T09:03:48.092Z,1032.52
2017-01-21T09:04:36.679Z,1032.59
2017-01-21T09:05:25.729Z,1032.58
2017-01-21T09:06:14.490Z,1032.62
2017-01-21T09:07:03.146Z,1032.62
2017-01-21T09:07:52.118Z,1032.62
2017-01-21T09:08:40.729Z,1032.58
2017-01-21T09:09:29.243Z,1032.59
2017-01-21T09:10:18.116Z,1032.59
2017-01-21T09:11:07.122Z,1032.58
2017-01-21T09:11:56.733Z,1032.56
2017-01-21T09:12:45.208Z,1032.59
2017-01-21T09:13:34.515Z,1032.58
2017-01-21T09:14:23.186Z,1032.61
2017-01-21T09:15:12.179Z,1032.56
2017-01-21T09:16:01.859Z,1032.57
2017-01-21T09:16:50.894Z,1032.62
2017-01-21T09:17:39.536Z,1032.66
2017-01-21T09:18:28.531Z,1032.66
2017-01-21T09:19:17.879Z,1032.66
2017-01-21T09:20:06.323Z,1032.63
2017-01-21T09:20:55.244Z,1032.6
2017-01-21T09:21:44.012Z,1032.63
2017-01-21T09:22:33.267Z,1032.6
2017-01-21T09:23:21.722Z,1032.57
2017-01-21T09:24:10.705Z,1032.61
2017-01-21T09:24:59.625Z,1032.62
2017-01-21T09:25:42.576Z,1032.63
2017-01-21T09:26:23.101Z,1032.65
2017-01-21T09:27:03.558Z,1032.63
2017-01-21T09:27:44.134Z,1032.64
2017-01-21T09:28:25.358Z,1032.57
2017-01-21T09:29:05.826Z,1032.61
2017-01-21T09:29:47.826Z,1032.55
2017-01-21T09:30:28.394Z,1032.57
2017-01-21T09:31:08.982Z,1032.55